createdAt,value
2018-03-27T00:00:43.357Z,65.43
2018-03-27T00:03:10.944Z,62.88
2018-03-27T00:05:38.561Z,49.08
2018-03-27T00:08:06.929Z,45.90
2018-03-27T00:10:35.318Z,49.65
2018-03-27T00:13:02.918Z,48.80
2018-03-27T00:15:30.548Z,63.35
2018-03-27T00:17:58.142Z,61.85
2018-03-27T00:20:26.498Z,86.93
2018-03-27T00:22:54.114Z,79.47
2018-03-27T00:25:22.462Z,93.30
2018-03-27T00:28:01.941Z,103.03
2018-03-27T00:30:41.443Z,83.47
2018-03-27T00:33:20.981Z,75.20
2018-03-27T00:36:00.401Z,83.53
2018-03-27T00:38:40.017Z,80.20
2018-03-27T00:41:19.441Z,98.05
2018-03-27T00:43:47.052Z,74.30
2018-03-27T00:46:14.665Z,67.60
2018-03-27T00:48:42.286Z,75.18
2018-03-27T00:51:09.870Z,99.60
2018-03-27T00:53:37.459Z,83.20
2018-03-27T00:56:05.065Z,73.80
2018-03-27T00:58:33.416Z,86.82
2018-03-27T01:01:01.025Z,81.65
2018-03-27T01:03:29.381Z,99.53
2018-03-27T01:05:56.993Z,76.75
2018-03-27T01:08:25.345Z,76.00
2018-03-27T01:10:52.968Z,76.62
2018-03-27T01:13:20.579Z,81.25
2018-03-27T01:15:48.161Z,65.07
2018-03-27T01:18:15.778Z,74.00
2018-03-27T01:20:44.136Z,63.28
2018-03-27T01:23:11.739Z,59.78
2018-03-27T01:25:39.332Z,46.97
2018-03-27T01:28:07.049Z,51.95
2018-03-27T01:30:34.640Z,56.20
2018-03-27T01:33:02.295Z,59.92
2018-03-27T01:35:29.888Z,49.70
2018-03-27T01:37:57.468Z,64.07
2018-03-27T01:40:25.081Z,45.80
2018-03-27T01:42:52.665Z,46.42
2018-03-27T01:45:20.277Z,54.17
2018-03-27T01:47:47.869Z,52.33
2018-03-27T01:50:15.493Z,65.70
2018-03-27T01:52:43.102Z,43.83
2018-03-27T01:55:10.716Z,41.72
2018-03-27T01:57:38.309Z,69.62
2018-03-27T02:00:05.933Z,62.15
2018-03-27T02:02:33.529Z,50.42
2018-03-27T02:05:01.881Z,58.67
2018-03-27T02:07:29.475Z,50.95
2018-03-27T02:09:57.060Z,53.55
2018-03-27T02:12:30.252Z,51.50
2018-03-27T02:15:04.369Z,36.92
2018-03-27T02:17:37.619Z,42.85
2018-03-27T02:20:10.819Z,45.12
2018-03-27T02:22:38.446Z,53.75
2018-03-27T02:25:06.036Z,38.25
2018-03-27T02:27:33.632Z,51.15
2018-03-27T02:30:01.245Z,43.72
2018-03-27T02:32:28.826Z,53.17
2018-03-27T02:34:56.469Z,48.65
2018-03-27T02:37:24.804Z,51.72
2018-03-27T02:39:52.414Z,46.45
2018-03-27T02:42:20.768Z,56.85
2018-03-27T02:44:48.425Z,40.55
2018-03-27T02:47:16.006Z,42.65
2018-03-27T02:49:43.622Z,40.67
2018-03-27T02:52:11.971Z,55.58
2018-03-27T02:54:39.601Z,44.88
2018-03-27T02:57:07.199Z,43.33
2018-03-27T02:59:34.788Z,57.40
2018-03-27T03:02:02.386Z,45.17
2018-03-27T03:04:30.006Z,48.30
2018-03-27T03:06:57.603Z,51.40
2018-03-27T03:09:25.176Z,51.03
2018-03-27T03:11:52.784Z,46.42
2018-03-27T03:14:20.366Z,46.55
2018-03-27T03:16:48.712Z,39.75
2018-03-27T03:19:16.320Z,39.42
2018-03-27T03:21:43.905Z,53.70
2018-03-27T03:24:12.281Z,41.47
2018-03-27T03:26:39.872Z,45.33
2018-03-27T03:29:08.264Z,45.38
2018-03-27T03:31:36.613Z,47.80
2018-03-27T03:34:04.216Z,43.47
2018-03-27T03:36:32.878Z,52.30
2018-03-27T03:39:00.502Z,59.90
2018-03-27T03:41:28.865Z,52.20
2018-03-27T03:43:56.443Z,57.45
2018-03-27T03:46:24.044Z,40.58
2018-03-27T03:48:51.914Z,41.70
2018-03-27T03:51:20.288Z,44.92
2018-03-27T03:53:47.937Z,47.30
2018-03-27T03:56:15.548Z,48.40
2018-03-27T03:58:43.912Z,40.00
2018-03-27T04:01:11.551Z,48.80
2018-03-27T04:03:39.452Z,42.80
2018-03-27T04:06:07.046Z,39.80
2018-03-27T04:08:34.669Z,34.75
2018-03-27T04:11:02.254Z,35.42
2018-03-27T04:13:29.871Z,43.10
2018-03-27T04:15:57.461Z,36.28
2018-03-27T04:18:25.844Z,35.47
2018-03-27T04:20:53.432Z,42.70
2018-03-27T04:23:21.809Z,37.67
2018-03-27T04:25:49.395Z,33.80
2018-03-27T04:28:17.754Z,42.15
2018-03-27T04:30:45.369Z,35.08
2018-03-27T04:33:12.986Z,35.83
2018-03-27T04:35:40.584Z,29.65
2018-03-27T04:38:08.234Z,30.15
2018-03-27T04:40:35.836Z,33.67
2018-03-27T04:43:03.440Z,35.05
2018-03-27T04:45:31.807Z,34.03
2018-03-27T04:47:59.409Z,35.03
2018-03-27T04:50:26.992Z,35.47
2018-03-27T04:52:54.592Z,37.00
2018-03-27T04:55:22.173Z,34.40
2018-03-27T04:57:49.781Z,40.15
2018-03-27T05:00:18.135Z,35.90
2018-03-27T05:02:45.802Z,35.28
2018-03-27T05:05:13.399Z,31.75
2018-03-27T05:07:41.108Z,30.55
2018-03-27T05:10:09.460Z,33.17
2018-03-27T05:12:37.083Z,30.60
2018-03-27T05:15:04.660Z,35.15
2018-03-27T05:17:32.238Z,33.47
2018-03-27T05:19:59.849Z,27.17
2018-03-27T05:22:27.513Z,36.38
2018-03-27T05:24:55.204Z,31.67
2018-03-27T05:27:22.786Z,31.70
2018-03-27T05:29:50.391Z,25.90
2018-03-27T05:32:18.743Z,29.83
2018-03-27T05:34:46.373Z,30.80
2018-03-27T05:37:13.981Z,27.50
2018-03-27T05:39:41.590Z,25.40
2018-03-27T05:42:09.969Z,25.48
2018-03-27T05:44:37.548Z,31.40
2018-03-27T05:47:05.156Z,27.75
2018-03-27T05:49:32.751Z,33.05
2018-03-27T05:52:00.358Z,36.50
2018-03-27T05:54:28.748Z,25.85
2018-03-27T05:56:56.370Z,35.15
2018-03-27T05:59:23.963Z,25.73
2018-03-27T06:01:51.565Z,28.83
2018-03-27T06:04:19.180Z,36.60
2018-03-27T06:06:46.767Z,33.83
2018-03-27T06:09:14.379Z,28.92
2018-03-27T06:11:42.037Z,33.72
2018-03-27T06:14:09.635Z,33.83
2018-03-27T06:16:37.236Z,34.83
2018-03-27T06:19:05.610Z,36.97
2018-03-27T06:21:33.961Z,27.35
2018-03-27T06:24:01.574Z,33.20
2018-03-27T06:26:29.173Z,41.33
2018-03-27T06:28:56.774Z,37.85
2018-03-27T06:31:24.386Z,31.77
2018-03-27T06:33:52.767Z,30.75
2018-03-27T06:36:20.386Z,35.28
2018-03-27T06:38:47.997Z,37.10
2018-03-27T06:41:15.614Z,38.15
2018-03-27T06:43:43.966Z,40.78
2018-03-27T06:46:11.585Z,43.33
2018-03-27T06:48:39.951Z,41.00
2018-03-27T06:51:07.549Z,49.72
2018-03-27T06:53:35.971Z,47.88
2018-03-27T06:56:03.568Z,47.85
2018-03-27T06:58:31.179Z,41.45
2018-03-27T07:00:59.522Z,46.28
2018-03-27T07:03:27.142Z,42.85
2018-03-27T07:05:54.760Z,37.03
2018-03-27T07:08:22.418Z,46.00
2018-03-27T07:10:50.044Z,54.78
2018-03-27T07:13:18.417Z,38.97
2018-03-27T07:15:46.030Z,54.67
2018-03-27T07:18:13.658Z,47.67
2018-03-27T07:20:41.258Z,51.10
2018-03-27T07:23:08.844Z,49.30
2018-03-27T07:25:36.445Z,42.70
2018-03-27T07:28:04.023Z,40.55
2018-03-27T07:30:31.678Z,43.95
2018-03-27T07:33:00.041Z,41.33
2018-03-27T07:35:27.697Z,41.60
2018-03-27T07:37:55.296Z,40.40
2018-03-27T07:40:22.893Z,42.50
2018-03-27T07:42:51.260Z,41.95
2018-03-27T07:45:18.864Z,39.08
2018-03-27T07:47:47.252Z,45.85
2018-03-27T07:50:19.577Z,45.97
2018-03-27T07:52:47.191Z,42.58
2018-03-27T07:55:14.791Z,34.30
2018-03-27T07:57:42.410Z,40.90
2018-03-27T08:00:10.006Z,35.40
2018-03-27T08:02:37.620Z,33.40
2018-03-27T08:05:05.236Z,29.10
2018-03-27T08:07:32.829Z,31.90
2018-03-27T08:10:00.443Z,29.58
2018-03-27T08:12:28.039Z,21.73
2018-03-27T08:14:55.637Z,32.83
2018-03-27T08:17:23.221Z,27.87
2018-03-27T08:19:50.829Z,32.75
2018-03-27T08:22:18.416Z,26.87
2018-03-27T08:24:46.000Z,33.28
2018-03-27T08:27:14.512Z,32.83
2018-03-27T08:29:42.145Z,27.80
2018-03-27T08:32:10.495Z,30.10
2018-03-27T08:34:38.062Z,30.00
2018-03-27T08:37:05.663Z,28.48
2018-03-27T08:39:33.266Z,29.85
2018-03-27T08:42:00.873Z,26.65
2018-03-27T08:44:28.471Z,29.02
2018-03-27T08:46:56.881Z,31.05
2018-03-27T08:49:25.252Z,22.30
2018-03-27T08:51:52.840Z,21.58
2018-03-27T08:54:21.238Z,22.42
2018-03-27T08:56:49.674Z,21.85
2018-03-27T08:59:17.272Z,20.62
2018-03-27T09:01:44.885Z,22.30
2018-03-27T09:04:12.497Z,21.17
2018-03-27T09:50:21.294Z,14.20
2018-03-27T09:52:49.674Z,13.15
2018-03-27T09:55:18.028Z,17.30
2018-03-27T09:57:45.632Z,16.45
2018-03-27T10:00:13.238Z,17.10
2018-03-27T10:02:40.833Z,20.45
2018-03-27T10:05:08.451Z,16.90
2018-03-27T10:07:36.053Z,19.02
2018-03-27T10:10:03.656Z,19.45
2018-03-27T10:12:31.261Z,16.25
2018-03-27T10:14:58.890Z,16.40
2018-03-27T10:17:26.479Z,15.07
2018-03-27T10:19:54.081Z,16.42
2018-03-27T10:22:21.684Z,15.52
2018-03-27T10:24:50.053Z,14.45
2018-03-27T10:27:17.674Z,15.43
2018-03-27T10:29:45.269Z,16.50
2018-03-27T10:32:12.903Z,20.35
2018-03-27T10:34:41.255Z,15.65
2018-03-27T10:37:08.920Z,16.27
2018-03-27T10:39:36.507Z,17.08
2018-03-27T10:42:04.105Z,17.70
2018-03-27T10:44:32.482Z,17.95
2018-03-27T10:47:00.127Z,16.75
2018-03-27T10:49:27.759Z,16.02
2018-03-27T10:51:56.148Z,17.75
2018-03-27T10:54:24.524Z,15.95
2018-03-27T10:56:52.129Z,17.60
2018-03-27T10:59:19.752Z,18.17
2018-03-27T11:01:47.343Z,17.92
2018-03-27T11:04:15.723Z,16.75
2018-03-27T11:06:43.338Z,18.00
2018-03-27T11:09:10.931Z,18.85
2018-03-27T11:11:38.560Z,18.23
2018-03-27T11:14:06.920Z,17.50
2018-03-27T11:16:34.869Z,19.23
2018-03-27T11:19:02.468Z,18.17
2018-03-27T11:21:30.097Z,17.37
2018-03-27T11:23:57.706Z,15.60
2018-03-27T11:26:25.331Z,15.88
2018-03-27T11:28:53.707Z,17.08
2018-03-27T11:31:21.294Z,17.08
2018-03-27T11:33:49.669Z,15.07
2018-03-27T11:36:17.268Z,18.00
2018-03-27T11:38:45.655Z,15.35
2018-03-27T11:41:13.277Z,15.95
2018-03-27T11:43:40.913Z,18.35
2018-03-27T11:46:08.529Z,15.35
2018-03-27T11:48:36.168Z,15.65
2018-03-27T11:51:03.773Z,15.63
2018-03-27T11:53:31.368Z,15.75
2018-03-27T11:55:58.984Z,13.85
2018-03-27T11:58:26.574Z,14.25
2018-03-27T12:00:54.269Z,15.63
2018-03-27T12:03:21.855Z,15.20
2018-03-27T12:05:49.540Z,15.70
2018-03-27T12:08:17.135Z,16.25
2018-03-27T12:10:45.526Z,17.15
2018-03-27T12:13:13.129Z,13.07
2018-03-27T12:15:40.728Z,16.10
2018-03-27T12:18:08.362Z,16.42
2018-03-27T12:20:36.717Z,16.02
2018-03-27T12:23:04.346Z,15.73
2018-03-27T12:25:31.937Z,14.30
2018-03-27T12:27:59.548Z,14.43
2018-03-27T12:30:27.141Z,13.45
2018-03-27T12:32:55.527Z,15.05
2018-03-27T12:35:23.143Z,13.77
2018-03-27T12:37:50.785Z,14.57
2018-03-27T12:40:19.153Z,12.25
2018-03-27T12:42:46.773Z,15.85
2018-03-27T12:45:14.408Z,13.45
2018-03-27T12:47:42.003Z,14.45
2018-03-27T12:50:09.603Z,12.63
2018-03-27T12:52:37.195Z,11.95
2018-03-27T12:55:04.824Z,11.63
2018-03-27T12:57:32.431Z,12.88
2018-03-27T13:00:00.056Z,11.00
2018-03-27T13:02:27.675Z,12.57
2018-03-27T13:04:56.083Z,10.03
2018-03-27T13:07:23.676Z,8.80
2018-03-27T13:09:51.229Z,9.07
2018-03-27T13:12:18.817Z,9.33
2018-03-27T13:14:46.374Z,9.10
2018-03-27T13:17:13.950Z,9.40
2018-03-27T13:19:41.516Z,7.13
2018-03-27T13:22:09.113Z,6.90
2018-03-27T13:24:36.673Z,5.83
2018-03-27T13:27:04.245Z,5.70
2018-03-27T13:29:31.824Z,5.90
2018-03-27T13:31:59.389Z,6.20
2018-03-27T13:34:26.974Z,5.90
2018-03-27T13:36:54.555Z,4.97
2018-03-27T13:39:22.195Z,4.40
2018-03-27T13:41:49.851Z,5.50
2018-03-27T13:44:18.261Z,5.00
2018-03-27T13:46:45.849Z,6.37
2018-03-27T13:49:13.397Z,5.70
2018-03-27T13:51:40.987Z,5.60
2018-03-27T13:54:08.560Z,6.93
2018-03-27T13:56:36.200Z,5.50
2018-03-27T13:59:05.048Z,3.63
2018-03-27T14:01:32.838Z,5.00
2018-03-27T14:04:00.446Z,4.60
2018-03-27T14:06:28.788Z,5.53
2018-03-27T14:08:56.344Z,7.10
2018-03-27T14:11:23.937Z,6.43
2018-03-27T14:13:51.534Z,4.90
2018-03-27T14:16:19.104Z,5.30
2018-03-27T14:18:52.044Z,4.63
2018-03-27T14:21:19.739Z,5.17
2018-03-27T14:23:47.369Z,4.57
2018-03-27T14:26:14.975Z,4.77
2018-03-27T14:28:42.581Z,5.30
2018-03-27T14:31:10.212Z,5.10
2018-03-27T14:33:37.817Z,5.53
2018-03-27T14:36:05.409Z,6.47
2018-03-27T14:38:32.997Z,5.40
2018-03-27T14:41:01.404Z,5.10
2018-03-27T14:43:29.773Z,4.22
2018-03-27T14:45:57.364Z,3.90
2018-03-27T14:48:24.986Z,5.30
2018-03-27T14:50:52.576Z,4.40
2018-03-27T14:53:20.153Z,5.22
2018-03-27T14:55:47.801Z,4.57
2018-03-27T14:58:15.365Z,4.55
2018-03-27T15:00:42.958Z,4.43
2018-03-27T15:03:10.595Z,5.68
2018-03-27T15:05:38.169Z,5.53
2018-03-27T15:08:05.764Z,5.03
2018-03-27T15:10:33.400Z,5.00
2018-03-27T15:13:01.012Z,5.12
2018-03-27T15:15:28.692Z,5.30
2018-03-27T15:17:56.298Z,5.25
2018-03-27T15:20:23.880Z,4.72
2018-03-27T15:22:52.301Z,7.53
2018-03-27T15:25:20.601Z,6.32
2018-03-27T15:27:48.179Z,7.25
2018-03-27T15:30:15.773Z,6.25
2018-03-27T15:32:43.361Z,6.28
2018-03-27T15:35:10.964Z,6.35
2018-03-27T15:37:39.352Z,6.35
2018-03-27T15:40:07.703Z,5.18
2018-03-27T15:42:35.321Z,6.43
2018-03-27T15:45:03.718Z,6.55
2018-03-27T15:47:32.080Z,6.07
2018-03-27T15:49:59.660Z,7.32
2018-03-27T15:52:27.305Z,6.57
2018-03-27T15:54:54.993Z,6.30
2018-03-27T15:57:22.668Z,7.45
2018-03-27T15:59:50.323Z,7.22
2018-03-27T16:02:17.981Z,7.47
2018-03-27T16:04:45.705Z,9.02
2018-03-27T16:07:13.432Z,8.63
2018-03-27T16:09:41.048Z,6.97
2018-03-27T16:12:08.636Z,6.85
2018-03-27T16:14:36.346Z,7.18
2018-03-27T16:17:03.932Z,6.53
2018-03-27T16:19:31.523Z,7.45
2018-03-27T16:21:59.112Z,7.12
2018-03-27T16:24:26.737Z,6.70
2018-03-27T16:26:54.430Z,7.25
2018-03-27T16:29:22.048Z,7.93
2018-03-27T16:31:49.628Z,6.50
2018-03-27T16:34:18.012Z,7.70
2018-03-27T16:36:46.364Z,7.43
2018-03-27T16:39:13.945Z,7.45
2018-03-27T16:41:41.553Z,7.72
2018-03-27T16:44:09.126Z,8.10
2018-03-27T16:46:36.798Z,7.60
2018-03-27T16:49:04.401Z,8.48
2018-03-27T16:51:31.994Z,7.82
2018-03-27T16:53:59.564Z,8.07
2018-03-27T16:56:27.182Z,7.40
2018-03-27T16:58:54.780Z,7.40
2018-03-27T17:01:23.120Z,10.40
2018-03-27T17:03:50.708Z,7.53
2018-03-27T17:06:18.294Z,7.97
2018-03-27T17:08:45.902Z,7.90
2018-03-27T17:11:14.264Z,8.82
2018-03-27T17:13:41.867Z,8.10
2018-03-27T17:16:10.217Z,7.20
2018-03-27T17:18:37.838Z,8.30
2018-03-27T17:21:05.424Z,11.12
2018-03-27T17:23:32.988Z,9.48
2018-03-27T17:26:01.065Z,8.65
2018-03-27T17:28:28.671Z,10.00
2018-03-27T17:30:56.268Z,7.05
2018-03-27T17:33:23.850Z,6.93
2018-03-27T17:35:51.461Z,6.87
2018-03-27T17:38:19.046Z,6.25
2018-03-27T17:40:46.634Z,6.93
2018-03-27T17:43:14.254Z,8.88
2018-03-27T17:45:41.837Z,6.90
2018-03-27T17:48:10.223Z,5.85
2018-03-27T17:50:37.812Z,6.90
2018-03-27T17:53:06.208Z,8.32
2018-03-27T17:55:34.540Z,6.43
2018-03-27T17:58:02.167Z,7.00
2018-03-27T18:00:30.604Z,7.40
2018-03-27T18:02:58.177Z,7.60
2018-03-27T18:05:25.771Z,9.75
2018-03-27T18:07:53.368Z,9.30
2018-03-27T18:10:21.099Z,8.90
2018-03-27T18:12:48.680Z,7.65
2018-03-27T18:15:16.288Z,9.63
2018-03-27T18:17:43.864Z,8.60
2018-03-27T18:20:11.479Z,8.73
2018-03-27T18:22:39.060Z,8.13
2018-03-27T18:25:06.637Z,9.10
2018-03-27T18:27:34.235Z,8.30
2018-03-27T18:30:01.888Z,9.68
2018-03-27T18:32:29.480Z,10.88
2018-03-27T18:34:57.852Z,11.05
2018-03-27T18:37:25.504Z,10.10
2018-03-27T18:39:53.863Z,10.00
2018-03-27T18:42:21.462Z,11.57
2018-03-27T18:44:49.068Z,11.57
2018-03-27T18:47:16.650Z,13.80
2018-03-27T18:49:44.273Z,14.73
2018-03-27T18:52:11.844Z,13.48
2018-03-27T18:54:40.215Z,9.93
2018-03-27T18:57:07.798Z,10.68
2018-03-27T18:59:36.218Z,14.20
2018-03-27T19:02:03.789Z,12.23
2018-03-27T19:04:31.364Z,12.13
2018-03-27T19:06:58.973Z,12.70
2018-03-27T19:09:26.631Z,14.02
2018-03-27T19:11:54.228Z,11.48
2018-03-27T19:14:21.812Z,11.32
2018-03-27T19:16:49.443Z,15.30
2018-03-27T19:19:17.024Z,11.20
2018-03-27T19:21:44.613Z,14.57
2018-03-27T19:24:12.238Z,15.82
2018-03-27T19:26:39.824Z,15.07
2018-03-27T19:29:07.418Z,18.20
2018-03-27T19:31:35.020Z,16.42
2018-03-27T19:34:02.614Z,14.60
2018-03-27T19:36:30.988Z,16.45
2018-03-27T19:38:59.344Z,18.42
2018-03-27T19:41:27.127Z,16.92
2018-03-27T19:43:54.738Z,17.85
2018-03-27T19:46:23.116Z,21.15
2018-03-27T19:48:50.734Z,22.20
2018-03-27T19:51:18.336Z,20.70
2018-03-27T19:53:46.004Z,27.70
2018-03-27T19:56:13.593Z,17.30
2018-03-27T19:58:41.229Z,17.15
2018-03-27T20:01:08.820Z,21.77
2018-03-27T20:03:36.411Z,17.70
2018-03-27T20:06:04.027Z,18.83
2018-03-27T20:08:31.630Z,18.87
2018-03-27T20:10:59.232Z,18.23
2018-03-27T20:13:26.848Z,20.67
2018-03-27T20:15:55.229Z,17.60
2018-03-27T20:18:22.844Z,20.50
2018-03-27T20:20:50.428Z,16.45
2018-03-27T20:23:18.033Z,15.95
2018-03-27T20:25:45.637Z,19.12
2018-03-27T20:28:13.306Z,18.50
2018-03-27T20:30:40.862Z,18.65
2018-03-27T20:33:08.470Z,19.15
2018-03-27T20:35:36.129Z,21.92
2018-03-27T20:38:03.753Z,21.35
2018-03-27T20:40:31.336Z,18.25
2018-03-27T20:42:58.951Z,21.52
2018-03-27T20:45:27.424Z,19.48
2018-03-27T20:47:55.275Z,29.65
2018-03-27T20:50:23.053Z,19.00
2018-03-27T20:52:51.633Z,21.00
2018-03-27T20:55:19.342Z,17.35
2018-03-27T20:57:46.922Z,19.98
2018-03-27T21:00:14.562Z,18.05
2018-03-27T21:02:42.159Z,19.30
2018-03-27T21:05:09.770Z,18.35
2018-03-27T21:07:38.169Z,20.90
2018-03-27T21:10:06.511Z,21.75
2018-03-27T21:12:34.189Z,17.92
2018-03-27T21:15:01.778Z,16.12
2018-03-27T21:17:29.405Z,19.37
2018-03-27T21:19:56.994Z,22.58
2018-03-27T21:22:24.610Z,20.50
2018-03-27T22:46:50.124Z,20.70
2018-03-27T22:49:17.716Z,22.02
2018-03-27T22:51:45.325Z,22.58
2018-03-27T22:54:12.904Z,19.35
2018-03-27T22:56:40.511Z,23.40
2018-03-27T22:59:08.867Z,19.50
2018-03-27T23:01:36.485Z,22.13
2018-03-27T23:04:04.072Z,23.00
2018-03-27T23:06:31.657Z,19.27
2018-03-27T23:08:59.261Z,19.33
2018-03-27T23:11:26.840Z,25.10
2018-03-27T23:13:54.439Z,25.42
2018-03-27T23:16:22.796Z,17.80
2018-03-27T23:18:50.412Z,23.33
2018-03-27T23:21:18.000Z,19.90
2018-03-27T23:23:45.595Z,19.77
2018-03-27T23:26:13.182Z,22.20
2018-03-27T23:28:40.765Z,21.90
2018-03-27T23:31:08.392Z,20.55
2018-03-27T23:33:35.973Z,21.48
2018-03-27T23:36:03.575Z,17.75
2018-03-27T23:38:31.239Z,17.33
2018-03-27T23:40:58.853Z,18.20
2018-03-27T23:43:27.220Z,19.95
2018-03-27T23:45:54.808Z,20.67
2018-03-27T23:48:22.454Z,20.27
2018-03-27T23:50:50.072Z,18.60
2018-03-27T23:53:18.425Z,20.00
2018-03-27T23:55:46.009Z,24.85
2018-03-27T23:58:13.630Z,21.27
